Guabiruba, Brazil
Current Conditions -  °F | °C
As of 7:00 AM on Monday 22 Dec 2014 (Local Time) from SBNF Reporting Station
Moderate Rain Moderate Rain  
Wind Chill: 77°   Ceiling: 1600
Heat Index: 78°   Visibility: 2.5mi
Dew Point: 75°   Wind: 7mph
Humidity: 94%   Direction: 240°WSW
Pressure: 29.74"   Gusts: NA
Location:  27.09°S, 48.98°W
Report Text: SBNF 220900Z 24006KT 4000 RA SCT010 BKN016 25/24 Q1007 RETS
Loading
Personal Weather Stations






























Interactive Weather Map New forecast layout! Learn more

10-Day Weather Forecast

Advertisements
Track Severe Weather on mobile